Salish Eagle — CFCX — position and weather

sailwx.info

Track history (hours):
 
Tides and Currents Weather Stations Pressure Air Temp Water Temp Dewpoint Dewpoint Depression Visibility Wind Speed Wind Dir Waves Ship Positions

Salish Eagle

Last reported at 2018-Jul-22 01:03 UTC. Time now 2018-Jul-22 04:32 UTC.
Position N 49°00' W 123°08'.

Length 107 m; draft 4.5 m.

Type: Ship. MMSI: 316030626.

Date/timePositionNaut miles runAvg speedWind from/ knotsBaromVisibWave heightAir tempDewpointWater temp
2018-Jul-22 01:03N 49°00' W 123°08'0 6.1
2018-Jul-22 01:00N 49°00' W 123°08'714.4
2018-Jul-22 00:30N 48°54' W 123°15'3 6.1
2018-Jul-21 23:58N 48°52' W 123°18'2 3.4
2018-Jul-21 23:29N 48°51' W 123°20'3 4.8
2018-Jul-21 22:55N 48°48' W 123°19'510.8
2018-Jul-21 22:29N 48°50' W 123°25'1 1.0
2018-Jul-21 21:10N 48°51' W 123°27'0 0.9
2018-Jul-21 21:00N 48°51' W 123°27'510.7
2018-Jul-21 20:30N 48°52' W 123°18'815.2
2018-Jul-21 19:57N 48°59' W 123°11'2 2.9
2018-Jul-21 19:06N 49°00' W 123°08'1 7.3
2018-Jul-21 19:00N 48°60' W 123°08'916.1
2018-Jul-21 18:27N 48°53' W 123°17'613.4
2018-Jul-21 18:00N 48°51' W 123°26'1 1.8
2018-Jul-21 17:30N 48°51' W 123°27'2 4.3
2018-Jul-21 17:00N 48°51' W 123°23'3 5.6
2018-Jul-21 16:25N 48°53' W 123°19'410.2
2018-Jul-21 16:00N 48°56' W 123°15'6 8.4
2018-Jul-21 15:14N 49°00' W 123°08'0 0.1
2018-Jul-21 14:44N 49°00' W 123°08'311.4
2018-Jul-21 14:30N 48°58' W 123°10'1212.0
2018-Jul-21 13:29N 48°51' W 123°25'1 2.9
2018-Jul-21 13:00N 48°51' W 123°27'0 0.0
2018-Jul-21 05:45N 48°51' W 123°27'1 4.8
2018-Jul-21 05:28N 48°50' W 123°25'510.2
2018-Jul-21 05:00N 48°48' W 123°19'3 5.6
2018-Jul-21 04:28N 48°51' W 123°21'612.4
2018-Jul-21 04:00N 48°55' W 123°16'714.4
2018-Jul-21 03:30N 49°00' W 123°08'0 0.2
2018-Jul-21 02:52N 49°00' W 123°08'3 7.0
2018-Jul-21 02:30N 48°58' W 123°10'917.0
2018-Jul-21 01:59N 48°51' W 123°19'1 2.0
2018-Jul-21 01:29N 48°51' W 123°20'2 3.8
2018-Jul-21 00:58N 48°53' W 123°19'5 9.5
2018-Jul-21 00:28N 48°56' W 123°14'6 7.8
2018-Jul-20 23:43N 49°00' W 123°08'0 0.0
2018-Jul-20 23:29N 49°00' W 123°08'4 8.0
2018-Jul-20 23:00N 48°57' W 123°11'714.4
2018-Jul-20 22:30N 48°52' W 123°18'5 9.8
2018-Jul-20 21:57N 48°51' W 123°27'0 0.3
2018-Jul-20 21:27N 48°51' W 123°27'4 8.1
2018-Jul-20 21:01N 48°51' W 123°21'713.7
2018-Jul-20 20:30N 48°56' W 123°14'6 6.5
2018-Jul-20 19:38N 49°00' W 123°08'1 3.7
2018-Jul-20 19:29N 48°60' W 123°08'714.2
2018-Jul-20 19:00N 48°55' W 123°15'713.2
2018-Jul-20 18:30N 48°51' W 123°23'2 4.0
2018-Jul-20 17:55N 48°51' W 123°27'1 3.3
2018-Jul-20 17:30N 48°51' W 123°25'4 6.8
2018-Jul-20 16:53N 48°53' W 123°19'511.6
2018-Jul-20 16:29N 48°56' W 123°14'612.4
2018-Jul-20 16:00N 49°00' W 123°08'0 0.2
2018-Jul-20 15:29N 49°00' W 123°08'1 1.3
2018-Jul-20 15:00N 48°60' W 123°08'714.6
2018-Jul-20 14:30N 48°54' W 123°15'611.7
2018-Jul-20 14:00N 48°49' W 123°20'2 3.4
2018-Jul-20 13:30N 48°48' W 123°19'611.6
2018-Jul-20 13:00N 48°51' W 123°27'0 0.0
2018-Jul-20 05:15N 48°51' W 123°27'1 4.7
2018-Jul-20 04:59N 48°50' W 123°25'5 8.8
2018-Jul-20 04:27N 48°48' W 123°19'4 8.3
2018-Jul-20 04:00N 48°52' W 123°20'612.8
2018-Jul-20 03:30N 48°57' W 123°14'5 5.5
2018-Jul-20 02:31N 49°00' W 123°08'0 4.2
2018-Jul-20 02:30N 49°00' W 123°08'816.3
2018-Jul-20 02:00N 48°54' W 123°16'4 7.0
2018-Jul-20 01:25N 48°51' W 123°20'2 4.2
2018-Jul-20 00:57N 48°52' W 123°18'0 0.6
2018-Jul-20 00:30N 48°53' W 123°19'712.9
2018-Jul-20 00:00N 48°57' W 123°12'4 6.0
2018-Jul-19 23:20N 49°00' W 123°08'0 1.2
2018-Jul-19 23:00N 48°60' W 123°08'713.8
2018-Jul-19 22:31N 48°55' W 123°15'611.8
2018-Jul-19 22:00N 48°51' W 123°22'3 5.9
2018-Jul-19 21:30N 48°51' W 123°27'0 0.0
2018-Jul-19 20:35N 48°51' W 123°27'0 0.0
2018-Jul-19 20:20N 48°51' W 123°27'2 5.4
2018-Jul-19 20:00N 48°50' W 123°25'4 8.1
2018-Jul-19 19:28N 48°48' W 123°19'3 5.8
2018-Jul-19 19:00N 48°51' W 123°20'1 2.7
2018-Jul-19 18:30N 48°52' W 123°19'2 4.0
2018-Jul-19 18:00N 48°54' W 123°17'612.9
2018-Jul-19 17:30N 48°58' W 123°11'3 3.5
2018-Jul-19 16:45N 49°00' W 123°08'0 0.0
2018-Jul-19 16:28N 49°00' W 123°08'611.4
2018-Jul-19 15:58N 48°56' W 123°13'5 9.2
2018-Jul-19 15:25N 48°53' W 123°19'2 4.6
2018-Jul-19 15:00N 48°51' W 123°20'2 3.2
2018-Jul-19 14:30N 48°49' W 123°20'5 4.1
2018-Jul-19 13:22N 48°51' W 123°27'0 0.0
2018-Jul-19 05:39N 48°51' W 123°27'2 8.9
2018-Jul-19 05:29N 48°50' W 123°25'4 9.2
2018-Jul-19 04:59N 48°48' W 123°19'3 5.5
2018-Jul-19 04:30N 48°51' W 123°20'2 3.8
2018-Jul-19 03:58N 48°53' W 123°19'3 5.6
2018-Jul-19 03:28N 48°55' W 123°17'613.0
2018-Jul-19 02:59N 48°59' W 123°09'1 3.0
2018-Jul-19 02:30N 49°00' W 123°08'3 6.8
2018-Jul-19 02:00N 48°57' W 123°10'713.3
2018-Jul-19 01:27N 48°52' W 123°18'2 3.6
2018-Jul-19 00:57N 48°51' W 123°20'3 5.7
2018-Jul-19 00:29N 48°48' W 123°19'4 7.9
2018-Jul-19 00:00N 48°52' W 123°21'611.1
2018-Jul-18 23:29N 48°56' W 123°15'612.8
2018-Jul-18 22:58N 49°00' W 123°08'0 0.1
2018-Jul-18 22:30N 49°00' W 123°08'612.2
2018-Jul-18 21:59N 48°55' W 123°14'611.6
2018-Jul-18 21:29N 48°52' W 123°21'4 6.4
2018-Jul-18 20:51N 48°51' W 123°27'0 0.0
2018-Jul-18 20:25N 48°51' W 123°27'2 5.8
2018-Jul-18 20:00N 48°49' W 123°24'4 7.4
2018-Jul-18 19:30N 48°48' W 123°19'3 5.5
2018-Jul-18 19:00N 48°51' W 123°20'1 2.3
2018-Jul-18 18:29N 48°52' W 123°20'1 2.6
2018-Jul-18 18:00N 48°53' W 123°19'611.9
2018-Jul-18 17:29N 48°57' W 123°12'4 5.0
2018-Jul-18 16:36N 49°00' W 123°08'0 1.0
2018-Jul-18 16:20N 49°00' W 123°08'413.3
2018-Jul-18 16:00N 48°57' W 123°12'612.3
2018-Jul-18 15:30N 48°53' W 123°19'2 3.6
2018-Jul-18 14:58N 48°51' W 123°20'0 0.9
2018-Jul-18 14:30N 48°50' W 123°20'3 3.2
2018-Jul-18 13:29N 48°50' W 123°25'1 0.2
2018-Jul-18 05:44N 48°51' W 123°27'1 5.3
2018-Jul-18 05:29N 48°50' W 123°25'5 9.7
2018-Jul-18 05:00N 48°48' W 123°19'3 5.4
2018-Jul-18 04:29N 48°51' W 123°20'2 3.4
2018-Jul-18 03:55N 48°53' W 123°19'2 4.6
2018-Jul-18 03:29N 48°54' W 123°17'813.8
2018-Jul-18 02:57N 48°60' W 123°09'1 2.6
2018-Jul-18 02:30N 49°00' W 123°08'3 5.4
2018-Jul-18 02:00N 48°58' W 123°10'814.4
2018-Jul-18 01:29N 48°53' W 123°18'2 4.1
2018-Jul-18 00:54N 48°51' W 123°20'3 6.7
2018-Jul-18 00:30N 48°48' W 123°19'4 7.2
2018-Jul-18 00:00N 48°52' W 123°20'511.2
2018-Jul-17 23:30N 48°56' W 123°16'612.3
2018-Jul-17 22:59N 49°00' W 123°08'0 0.3
2018-Jul-17 22:30N 49°00' W 123°08'611.6
2018-Jul-17 22:00N 48°56' W 123°13'712.0
2018-Jul-17 21:27N 48°52' W 123°21'4 8.1
2018-Jul-17 20:59N 48°51' W 123°27'0 0.0
2018-Jul-17 20:30N 48°51' W 123°27'1 2.3
2018-Jul-17 20:00N 48°50' W 123°25'5 9.8
2018-Jul-17 19:30N 48°48' W 123°19'3 5.4
2018-Jul-17 19:00N 48°51' W 123°20'1 1.7
2018-Jul-17 18:28N 48°52' W 123°19'1 2.5
2018-Jul-17 18:00N 48°53' W 123°18'713.2
2018-Jul-17 17:29N 48°58' W 123°12'4 7.3
2018-Jul-17 16:59N 49°00' W 123°08'0 0.0
2018-Jul-17 16:30N 49°00' W 123°08'510.0
2018-Jul-17 15:59N 48°56' W 123°12'610.6
2018-Jul-17 15:28N 48°53' W 123°19'2 4.4
2018-Jul-17 15:00N 48°51' W 123°21'1 2.2
2018-Jul-17 14:30N 48°50' W 123°20'2 4.5
2018-Jul-17 14:00N 48°48' W 123°19'6 0.7
2018-Jul-17 05:43N 48°51' W 123°27'1 5.9
2018-Jul-17 05:30N 48°50' W 123°25'5 9.6
2018-Jul-17 05:00N 48°48' W 123°19'3 5.4
2018-Jul-17 04:30N 48°51' W 123°20'2 3.5
2018-Jul-17 03:56N 48°53' W 123°19'1 3.0
2018-Jul-17 03:27N 48°54' W 123°17'714.9
2018-Jul-17 03:00N 48°59' W 123°10'2 4.4
2018-Jul-17 02:27N 49°00' W 123°08'2 4.5
2018-Jul-17 02:00N 48°59' W 123°09'714.1
2018-Jul-17 01:29N 48°53' W 123°17'3 5.1
2018-Jul-17 00:52N 48°51' W 123°20'3 7.7
2018-Jul-17 00:30N 48°48' W 123°19'8 7.6
2018-Jul-16 23:29N 48°55' W 123°16'714.5
2018-Jul-16 23:00N 49°00' W 123°08'0 0.2
2018-Jul-16 22:30N 49°00' W 123°08'4 8.0
2018-Jul-16 22:00N 48°57' W 123°11'715.1
2018-Jul-16 21:30N 48°51' W 123°19'510.2
2018-Jul-16 21:00N 48°51' W 123°27'0 0.2
2018-Jul-16 20:30N 48°51' W 123°27'2 4.3
2018-Jul-16 20:00N 48°49' W 123°25'4 8.2
2018-Jul-16 19:30N 48°48' W 123°19'3 5.4
2018-Jul-16 19:00N 48°51' W 123°20'1 2.0
2018-Jul-16 18:30N 48°52' W 123°19'1 2.3
2018-Jul-16 18:00N 48°53' W 123°18'815.4
2018-Jul-16 17:30N 48°58' W 123°11'3 5.3
2018-Jul-16 16:59N 49°00' W 123°08'0 0.0
2018-Jul-16 16:30N 49°00' W 123°08'611.3
2018-Jul-16 16:00N 48°56' W 123°13'5 8.5
2018-Jul-16 15:23N 48°53' W 123°19'2 4.7
2018-Jul-16 14:59N 48°51' W 123°20'1 1.3
2018-Jul-16 14:30N 48°50' W 123°20'2 4.8
2018-Jul-16 14:00N 48°48' W 123°19'610.6
2018-Jul-16 13:28N 48°51' W 123°26'0 0.1
2018-Jul-16 10:52N 48°51' W 123°27'0 0.0
2018-Jul-16 10:28N 48°51' W 123°27'0 0.0
2018-Jul-16 09:58N 48°51' W 123°27'0 0.0
2018-Jul-16 06:52N 48°51' W 123°27'1 3.8
2018-Jul-16 06:29N 48°50' W 123°25'613.0
2018-Jul-16 05:59N 48°54' W 123°17'714.8
2018-Jul-16 05:29N 48°59' W 123°09'1 2.0
2018-Jul-16 04:58N 48°60' W 123°08'714.2
2018-Jul-16 04:30N 48°55' W 123°14'611.0
2018-Jul-16 04:00N 48°51' W 123°21'1 1.9
2018-Jul-16 03:28N 48°51' W 123°20'5 7.3
2018-Jul-16 02:49N 48°55' W 123°17'515.4
2018-Jul-16 02:30N 48°58' W 123°11'3 5.9
2018-Jul-16 02:00N 49°00' W 123°08'3 7.0
2018-Jul-16 01:30N 48°57' W 123°10'711.5
2018-Jul-16 00:52N 48°53' W 123°19'0 0.9
2018-Jul-16 00:30N 48°53' W 123°18'714.6
2018-Jul-16 00:00N 48°58' W 123°11'3 5.8
2018-Jul-15 23:29N 49°00' W 123°08'5 9.5
2018-Jul-15 22:58N 48°56' W 123°12'714.1
2018-Jul-15 22:28N 48°52' W 123°20'4 8.0
2018-Jul-15 21:55N 48°51' W 123°27'0 0.0
2018-Jul-15 21:25N 48°51' W 123°27'0 0.1
2018-Jul-15 20:45N 48°51' W 123°27'2 8.8
2018-Jul-15 20:30N 48°50' W 123°25'612.1
2018-Jul-15 20:01N 48°44' W 123°25'2 4.6
2018-Jul-15 19:30N 48°41' W 123°25'4 8.2
2018-Jul-15 19:00N 48°45' W 123°21'4 7.3
2018-Jul-15 18:30N 48°48' W 123°19'3 4.2
2018-Jul-15 17:52N 48°51' W 123°20'2 4.4
2018-Jul-15 17:29N 48°52' W 123°18'1 2.5
2018-Jul-15 16:59N 48°53' W 123°18'815.2
2018-Jul-15 16:29N 48°59' W 123°09'2 3.8
2018-Jul-15 16:00N 49°00' W 123°08'0 0.5
2018-Jul-15 15:30N 49°00' W 123°08'713.5
2018-Jul-15 14:58N 48°55' W 123°15'610.2
2018-Jul-15 14:20N 48°49' W 123°20'1 4.5
2018-Jul-15 14:00N 48°48' W 123°19'510.2
2018-Jul-15 13:30N 48°51' W 123°26'1 0.1
2018-Jul-15 07:22N 48°51' W 123°27'1 3.8
2018-Jul-15 07:00N 48°51' W 123°25'4 8.2
2018-Jul-15 06:29N 48°53' W 123°19'714.3
2018-Jul-15 06:00N 48°58' W 123°12'4 6.6
2018-Jul-15 05:27N 49°00' W 123°08'0 0.0
2018-Jul-15 04:58N 49°00' W 123°08'0 0.0
2018-Jul-15 04:28N 49°00' W 123°08'0 0.0
2018-Jul-15 03:52N 49°00' W 123°08'0 0.0
2018-Jul-15 03:30N 49°00' W 123°08'0 0.0
2018-Jul-15 03:01N 49°00' W 123°08'0 0.0
2018-Jul-15 02:30N 49°00' W 123°08'0 0.0
2018-Jul-15 02:01N 49°00' W 123°08'0 0.3
2018-Jul-15 01:30N 49°00' W 123°08'714.8
2018-Jul-15 01:00N 48°54' W 123°15'3 6.3
2018-Jul-15 00:30N 48°52' W 123°18'2 3.8
2018-Jul-15 00:00N 48°51' W 123°20'3 5.5
2018-Jul-14 23:30N 48°48' W 123°19'510.7
2018-Jul-14 23:00N 48°51' W 123°26'1 1.2
2018-Jul-14 22:30N 48°51' W 123°27'713.2
2018-Jul-14 22:00N 48°46' W 123°22'4 6.3
2018-Jul-14 21:26N 48°46' W 123°27'3 6.1
2018-Jul-14 21:00N 48°44' W 123°24'713.0
2018-Jul-14 20:30N 48°51' W 123°21'5 9.8
2018-Jul-14 20:00N 48°54' W 123°17'815.1
2018-Jul-14 19:30N 48°60' W 123°09'1 1.7
2018-Jul-14 19:00N 49°00' W 123°08'510.6
2018-Jul-14 18:30N 48°56' W 123°12'713.2
2018-Jul-14 17:58N 48°52' W 123°21'4 8.2
2018-Jul-14 17:29N 48°51' W 123°27'0 0.3
2018-Jul-14 17:00N 48°51' W 123°27'510.8
2018-Jul-14 16:30N 48°52' W 123°18'1 2.8
2018-Jul-14 16:00N 48°54' W 123°17'817.0
2018-Jul-14 15:30N 48°60' W 123°08'1 1.7
2018-Jul-14 15:00N 49°00' W 123°08'5 9.3
2018-Jul-14 14:29N 48°56' W 123°12'1010.6
2018-Jul-14 13:30N 48°51' W 123°25'1 0.2
2018-Jul-14 05:24N 48°51' W 123°27'4 7.6
2018-Jul-14 04:56N 48°49' W 123°23'3 6.4
2018-Jul-14 04:30N 48°48' W 123°19'4 8.3
2018-Jul-14 03:59N 48°52' W 123°18'613.0
2018-Jul-14 03:30N 48°57' W 123°12'4 8.7
2018-Jul-14 03:00N 49°00' W 123°08'1 1.6
2018-Jul-14 02:30N 48°60' W 123°08'815.9
2018-Jul-14 02:00N 48°54' W 123°16'4 6.8
2018-Jul-14 01:28N 48°51' W 123°20'1 2.9
2018-Jul-14 01:00N 48°52' W 123°19'2 3.4
2018-Jul-14 00:26N 48°54' W 123°17'716.3
2018-Jul-14 00:00N 48°59' W 123°10'2 4.4
2018-Jul-13 23:30N 49°00' W 123°08'3 6.5
2018-Jul-13 23:00N 48°58' W 123°10'816.2
2018-Jul-13 22:30N 48°52' W 123°19'510.2
2018-Jul-13 21:59N 48°51' W 123°27'0 0.3
2018-Jul-13 21:30N 48°51' W 123°27'510.1
2018-Jul-13 20:59N 48°52' W 123°19'815.9
2018-Jul-13 20:30N 48°58' W 123°12'4 6.9
2018-Jul-13 19:59N 49°00' W 123°08'1 2.9
2018-Jul-13 19:30N 48°59' W 123°08'815.4
2018-Jul-13 19:00N 48°53' W 123°16'712.9
2018-Jul-13 18:30N 48°50' W 123°25'1 2.7
2018-Jul-13 17:59N 48°51' W 123°27'2 3.3
2018-Jul-13 17:30N 48°51' W 123°24'4 7.4
2018-Jul-13 16:59N 48°53' W 123°19'4 8.0
2018-Jul-13 16:30N 48°55' W 123°15'713.5
2018-Jul-13 16:00N 49°00' W 123°08'0 0.0
2018-Jul-13 15:30N 49°00' W 123°08'4 7.2
2018-Jul-13 15:00N 48°57' W 123°11'1010.4
2018-Jul-13 14:00N 48°49' W 123°20'1 2.7
2018-Jul-13 13:31N 48°48' W 123°20'510.2
2018-Jul-13 12:59N 48°51' W 123°27'0 0.0
2018-Jul-13 05:25N 48°51' W 123°27'4 8.1
2018-Jul-13 04:55N 48°48' W 123°23'2 5.6
2018-Jul-13 04:30N 48°48' W 123°19'712.5
2018-Jul-13 03:59N 48°54' W 123°17'816.5
2018-Jul-13 03:30N 49°00' W 123°09'1 1.5
2018-Jul-13 03:00N 49°00' W 123°08'713.6
2018-Jul-13 02:29N 48°55' W 123°14'611.3
2018-Jul-13 01:59N 48°51' W 123°20'0 0.2
2018-Jul-13 01:28N 48°51' W 123°20'2 3.0
2018-Jul-13 00:54N 48°52' W 123°18'0 0.9
2018-Jul-13 00:30N 48°53' W 123°19'611.8
2018-Jul-12 23:59N 48°57' W 123°13'5 9.1
2018-Jul-12 23:29N 49°00' W 123°08'0 0.7
2018-Jul-12 23:00N 49°00' W 123°08'713.9
2018-Jul-12 22:30N 48°55' W 123°15'612.5
2018-Jul-12 21:59N 48°51' W 123°23'3 1.7
2018-Jul-12 20:26N 48°51' W 123°27'5 9.2
2018-Jul-12 19:52N 48°48' W 123°21'1 2.8
2018-Jul-12 19:30N 48°48' W 123°19'3 5.4
2018-Jul-12 19:00N 48°51' W 123°20'1 1.8
2018-Jul-12 18:30N 48°52' W 123°19'2 2.7
2018-Jul-12 17:55N 48°53' W 123°18'615.0
2018-Jul-12 17:29N 48°58' W 123°12'4 6.3
2018-Jul-12 16:56N 49°00' W 123°08'0 0.0
2018-Jul-12 16:28N 49°00' W 123°08'510.6
2018-Jul-12 16:00N 48°56' W 123°12'611.0
2018-Jul-12 15:29N 48°53' W 123°19'2 3.8
2018-Jul-12 14:59N 48°51' W 123°20'1 1.6
2018-Jul-12 14:30N 48°50' W 123°20'2 4.5
2018-Jul-12 14:00N 48°48' W 123°19'5 9.9
2018-Jul-12 13:30N 48°51' W 123°25'1 1.4
2018-Jul-12 12:46N 48°51' W 123°27'0 0.0
2018-Jul-12 06:40N 48°51' W 123°27'0 0.0
2018-Jul-12 06:10N 48°51' W 123°27'0 0.0
2018-Jul-12 05:50N 48°51' W 123°27'2 6.0
2018-Jul-12 05:27N 48°49' W 123°25'4 9.0
2018-Jul-12 05:00N 48°48' W 123°19'3 5.5
2018-Jul-12 04:31N 48°51' W 123°20'2 3.5
2018-Jul-12 03:58N 48°52' W 123°18'1 2.1
2018-Jul-12 03:30N 48°53' W 123°18'714.3
2018-Jul-12 03:00N 48°59' W 123°11'3 5.2
2018-Jul-12 02:30N 49°00' W 123°08'3 6.5
2018-Jul-12 02:00N 48°57' W 123°10'814.2
2018-Jul-12 01:28N 48°52' W 123°18'  
Track history (hours):
 
Tides and Currents Weather Stations Pressure Air Temp Water Temp Dewpoint Dewpoint Depression Visibility Wind Speed Wind Dir Waves Ship Positions

Salish Eagle

Last reported at 2018-Jul-22 01:03 UTC. Time now 2018-Jul-22 04:32 UTC.
Position N 49°00' W 123°08'.

Length 107 m; draft 4.5 m.

Type: Ship. MMSI: 316030626.

Date/timePositionNaut miles runAvg speedWind from/ knotsBaromVisibWave heightAir tempDewpointWater temp
2018-Jul-22 01:03N 49°00' W 123°08'0 6.1
2018-Jul-22 01:00N 49°00' W 123°08'714.4
2018-Jul-22 00:30N 48°54' W 123°15'3 6.1
2018-Jul-21 23:58N 48°52' W 123°18'2 3.4
2018-Jul-21 23:29N 48°51' W 123°20'3 4.8
2018-Jul-21 22:55N 48°48' W 123°19'510.8
2018-Jul-21 22:29N 48°50' W 123°25'1 1.0
2018-Jul-21 21:10N 48°51' W 123°27'0 0.9
2018-Jul-21 21:00N 48°51' W 123°27'510.7
2018-Jul-21 20:30N 48°52' W 123°18'815.2
2018-Jul-21 19:57N 48°59' W 123°11'2 2.9
2018-Jul-21 19:06N 49°00' W 123°08'1 7.3
2018-Jul-21 19:00N 48°60' W 123°08'916.1
2018-Jul-21 18:27N 48°53' W 123°17'613.4
2018-Jul-21 18:00N 48°51' W 123°26'1 1.8
2018-Jul-21 17:30N 48°51' W 123°27'2 4.3
2018-Jul-21 17:00N 48°51' W 123°23'3 5.6
2018-Jul-21 16:25N 48°53' W 123°19'410.2
2018-Jul-21 16:00N 48°56' W 123°15'6 8.4
2018-Jul-21 15:14N 49°00' W 123°08'0 0.1
2018-Jul-21 14:44N 49°00' W 123°08'311.4
2018-Jul-21 14:30N 48°58' W 123°10'1212.0
2018-Jul-21 13:29N 48°51' W 123°25'1 2.9
2018-Jul-21 13:00N 48°51' W 123°27'0 0.0
2018-Jul-21 05:45N 48°51' W 123°27'1 4.8
2018-Jul-21 05:28N 48°50' W 123°25'510.2
2018-Jul-21 05:00N 48°48' W 123°19'3 5.6
2018-Jul-21 04:28N 48°51' W 123°21'612.4
2018-Jul-21 04:00N 48°55' W 123°16'714.4
2018-Jul-21 03:30N 49°00' W 123°08'0 0.2
2018-Jul-21 02:52N 49°00' W 123°08'3 7.0
2018-Jul-21 02:30N 48°58' W 123°10'917.0
2018-Jul-21 01:59N 48°51' W 123°19'1 2.0
2018-Jul-21 01:29N 48°51' W 123°20'2 3.8
2018-Jul-21 00:58N 48°53' W 123°19'5 9.5
2018-Jul-21 00:28N 48°56' W 123°14'6 7.8
2018-Jul-20 23:43N 49°00' W 123°08'0 0.0
2018-Jul-20 23:29N 49°00' W 123°08'4 8.0
2018-Jul-20 23:00N 48°57' W 123°11'714.4
2018-Jul-20 22:30N 48°52' W 123°18'5 9.8
2018-Jul-20 21:57N 48°51' W 123°27'0 0.3
2018-Jul-20 21:27N 48°51' W 123°27'4 8.1
2018-Jul-20 21:01N 48°51' W 123°21'713.7
2018-Jul-20 20:30N 48°56' W 123°14'6 6.5
2018-Jul-20 19:38N 49°00' W 123°08'1 3.7
2018-Jul-20 19:29N 48°60' W 123°08'714.2
2018-Jul-20 19:00N 48°55' W 123°15'713.2
2018-Jul-20 18:30N 48°51' W 123°23'2 4.0
2018-Jul-20 17:55N 48°51' W 123°27'1 3.3
2018-Jul-20 17:30N 48°51' W 123°25'4 6.8
2018-Jul-20 16:53N 48°53' W 123°19'511.6
2018-Jul-20 16:29N 48°56' W 123°14'612.4
2018-Jul-20 16:00N 49°00' W 123°08'0 0.2
2018-Jul-20 15:29N 49°00' W 123°08'1 1.3
2018-Jul-20 15:00N 48°60' W 123°08'714.6
2018-Jul-20 14:30N 48°54' W 123°15'611.7
2018-Jul-20 14:00N 48°49' W 123°20'2 3.4
2018-Jul-20 13:30N 48°48' W 123°19'611.6
2018-Jul-20 13:00N 48°51' W 123°27'0 0.0
2018-Jul-20 05:15N 48°51' W 123°27'1 4.7
2018-Jul-20 04:59N 48°50' W 123°25'5 8.8
2018-Jul-20 04:27N 48°48' W 123°19'4 8.3
2018-Jul-20 04:00N 48°52' W 123°20'612.8
2018-Jul-20 03:30N 48°57' W 123°14'5 5.5
2018-Jul-20 02:31N 49°00' W 123°08'0 4.2
2018-Jul-20 02:30N 49°00' W 123°08'816.3
2018-Jul-20 02:00N 48°54' W 123°16'4 7.0
2018-Jul-20 01:25N 48°51' W 123°20'2 4.2
2018-Jul-20 00:57N 48°52' W 123°18'0 0.6
2018-Jul-20 00:30N 48°53' W 123°19'712.9
2018-Jul-20 00:00N 48°57' W 123°12'4 6.0
2018-Jul-19 23:20N 49°00' W 123°08'0 1.2
2018-Jul-19 23:00N 48°60' W 123°08'713.8
2018-Jul-19 22:31N 48°55' W 123°15'611.8
2018-Jul-19 22:00N 48°51' W 123°22'3 5.9
2018-Jul-19 21:30N 48°51' W 123°27'0 0.0
2018-Jul-19 20:35N 48°51' W 123°27'0 0.0
2018-Jul-19 20:20N 48°51' W 123°27'2 5.4
2018-Jul-19 20:00N 48°50' W 123°25'4 8.1
2018-Jul-19 19:28N 48°48' W 123°19'3 5.8
2018-Jul-19 19:00N 48°51' W 123°20'1 2.7
2018-Jul-19 18:30N 48°52' W 123°19'2 4.0
2018-Jul-19 18:00N 48°54' W 123°17'612.9
2018-Jul-19 17:30N 48°58' W 123°11'3 3.5
2018-Jul-19 16:45N 49°00' W 123°08'0 0.0
2018-Jul-19 16:28N 49°00' W 123°08'611.4
2018-Jul-19 15:58N 48°56' W 123°13'5 9.2
2018-Jul-19 15:25N 48°53' W 123°19'2 4.6
2018-Jul-19 15:00N 48°51' W 123°20'2 3.2
2018-Jul-19 14:30N 48°49' W 123°20'5 4.1
2018-Jul-19 13:22N 48°51' W 123°27'0 0.0
2018-Jul-19 05:39N 48°51' W 123°27'2 8.9
2018-Jul-19 05:29N 48°50' W 123°25'4 9.2
2018-Jul-19 04:59N 48°48' W 123°19'3 5.5
2018-Jul-19 04:30N 48°51' W 123°20'2 3.8
2018-Jul-19 03:58N 48°53' W 123°19'3 5.6
2018-Jul-19 03:28N 48°55' W 123°17'613.0
2018-Jul-19 02:59N 48°59' W 123°09'1 3.0
2018-Jul-19 02:30N 49°00' W 123°08'3 6.8
2018-Jul-19 02:00N 48°57' W 123°10'713.3
2018-Jul-19 01:27N 48°52' W 123°18'2 3.6
2018-Jul-19 00:57N 48°51' W 123°20'3 5.7
2018-Jul-19 00:29N 48°48' W 123°19'4 7.9
2018-Jul-19 00:00N 48°52' W 123°21'611.1
2018-Jul-18 23:29N 48°56' W 123°15'612.8
2018-Jul-18 22:58N 49°00' W 123°08'0 0.1
2018-Jul-18 22:30N 49°00' W 123°08'612.2
2018-Jul-18 21:59N 48°55' W 123°14'611.6
2018-Jul-18 21:29N 48°52' W 123°21'4 6.4
2018-Jul-18 20:51N 48°51' W 123°27'0 0.0
2018-Jul-18 20:25N 48°51' W 123°27'2 5.8
2018-Jul-18 20:00N 48°49' W 123°24'4 7.4
2018-Jul-18 19:30N 48°48' W 123°19'3 5.5
2018-Jul-18 19:00N 48°51' W 123°20'1 2.3
2018-Jul-18 18:29N 48°52' W 123°20'1 2.6
2018-Jul-18 18:00N 48°53' W 123°19'611.9
2018-Jul-18 17:29N 48°57' W 123°12'4 5.0
2018-Jul-18 16:36N 49°00' W 123°08'0 1.0
2018-Jul-18 16:20N 49°00' W 123°08'413.3
2018-Jul-18 16:00N 48°57' W 123°12'612.3
2018-Jul-18 15:30N 48°53' W 123°19'2 3.6
2018-Jul-18 14:58N 48°51' W 123°20'0 0.9
2018-Jul-18 14:30N 48°50' W 123°20'3 3.2
2018-Jul-18 13:29N 48°50' W 123°25'1 0.2
2018-Jul-18 05:44N 48°51' W 123°27'1 5.3
2018-Jul-18 05:29N 48°50' W 123°25'5 9.7
2018-Jul-18 05:00N 48°48' W 123°19'3 5.4
2018-Jul-18 04:29N 48°51' W 123°20'2 3.4
2018-Jul-18 03:55N 48°53' W 123°19'2 4.6
2018-Jul-18 03:29N 48°54' W 123°17'813.8
2018-Jul-18 02:57N 48°60' W 123°09'1 2.6
2018-Jul-18 02:30N 49°00' W 123°08'3 5.4
2018-Jul-18 02:00N 48°58' W 123°10'814.4
2018-Jul-18 01:29N 48°53' W 123°18'2 4.1
2018-Jul-18 00:54N 48°51' W 123°20'3 6.7
2018-Jul-18 00:30N 48°48' W 123°19'4 7.2
2018-Jul-18 00:00N 48°52' W 123°20'511.2
2018-Jul-17 23:30N 48°56' W 123°16'612.3
2018-Jul-17 22:59N 49°00' W 123°08'0 0.3
2018-Jul-17 22:30N 49°00' W 123°08'611.6
2018-Jul-17 22:00N 48°56' W 123°13'712.0
2018-Jul-17 21:27N 48°52' W 123°21'4 8.1
2018-Jul-17 20:59N 48°51' W 123°27'0 0.0
2018-Jul-17 20:30N 48°51' W 123°27'1 2.3
2018-Jul-17 20:00N 48°50' W 123°25'5 9.8
2018-Jul-17 19:30N 48°48' W 123°19'3 5.4
2018-Jul-17 19:00N 48°51' W 123°20'1 1.7
2018-Jul-17 18:28N 48°52' W 123°19'1 2.5
2018-Jul-17 18:00N 48°53' W 123°18'713.2
2018-Jul-17 17:29N 48°58' W 123°12'4 7.3
2018-Jul-17 16:59N 49°00' W 123°08'0 0.0
2018-Jul-17 16:30N 49°00' W 123°08'510.0
2018-Jul-17 15:59N 48°56' W 123°12'610.6
2018-Jul-17 15:28N 48°53' W 123°19'2 4.4
2018-Jul-17 15:00N 48°51' W 123°21'1 2.2
2018-Jul-17 14:30N 48°50' W 123°20'2 4.5
2018-Jul-17 14:00N 48°48' W 123°19'6 0.7
2018-Jul-17 05:43N 48°51' W 123°27'1 5.9
2018-Jul-17 05:30N 48°50' W 123°25'5 9.6
2018-Jul-17 05:00N 48°48' W 123°19'3 5.4
2018-Jul-17 04:30N 48°51' W 123°20'2 3.5
2018-Jul-17 03:56N 48°53' W 123°19'1 3.0
2018-Jul-17 03:27N 48°54' W 123°17'714.9
2018-Jul-17 03:00N 48°59' W 123°10'2 4.4
2018-Jul-17 02:27N 49°00' W 123°08'2 4.5
2018-Jul-17 02:00N 48°59' W 123°09'714.1
2018-Jul-17 01:29N 48°53' W 123°17'3 5.1
2018-Jul-17 00:52N 48°51' W 123°20'3 7.7
2018-Jul-17 00:30N 48°48' W 123°19'8 7.6
2018-Jul-16 23:29N 48°55' W 123°16'714.5
2018-Jul-16 23:00N 49°00' W 123°08'0 0.2
2018-Jul-16 22:30N 49°00' W 123°08'4 8.0
2018-Jul-16 22:00N 48°57' W 123°11'715.1
2018-Jul-16 21:30N 48°51' W 123°19'510.2
2018-Jul-16 21:00N 48°51' W 123°27'0 0.2
2018-Jul-16 20:30N 48°51' W 123°27'2 4.3
2018-Jul-16 20:00N 48°49' W 123°25'4 8.2
2018-Jul-16 19:30N 48°48' W 123°19'3 5.4
2018-Jul-16 19:00N 48°51' W 123°20'1 2.0
2018-Jul-16 18:30N 48°52' W 123°19'1 2.3
2018-Jul-16 18:00N 48°53' W 123°18'815.4
2018-Jul-16 17:30N 48°58' W 123°11'3 5.3
2018-Jul-16 16:59N 49°00' W 123°08'0 0.0
2018-Jul-16 16:30N 49°00' W 123°08'611.3
2018-Jul-16 16:00N 48°56' W 123°13'5 8.5
2018-Jul-16 15:23N 48°53' W 123°19'2 4.7
2018-Jul-16 14:59N 48°51' W 123°20'1 1.3
2018-Jul-16 14:30N 48°50' W 123°20'2 4.8
2018-Jul-16 14:00N 48°48' W 123°19'610.6
2018-Jul-16 13:28N 48°51' W 123°26'0 0.1
2018-Jul-16 10:52N 48°51' W 123°27'0 0.0
2018-Jul-16 10:28N 48°51' W 123°27'0 0.0
2018-Jul-16 09:58N 48°51' W 123°27'0 0.0
2018-Jul-16 06:52N 48°51' W 123°27'1 3.8
2018-Jul-16 06:29N 48°50' W 123°25'613.0
2018-Jul-16 05:59N 48°54' W 123°17'714.8
2018-Jul-16 05:29N 48°59' W 123°09'1 2.0
2018-Jul-16 04:58N 48°60' W 123°08'714.2
2018-Jul-16 04:30N 48°55' W 123°14'611.0
2018-Jul-16 04:00N 48°51' W 123°21'1 1.9
2018-Jul-16 03:28N 48°51' W 123°20'5 7.3
2018-Jul-16 02:49N 48°55' W 123°17'515.4
2018-Jul-16 02:30N 48°58' W 123°11'3 5.9
2018-Jul-16 02:00N 49°00' W 123°08'3 7.0
2018-Jul-16 01:30N 48°57' W 123°10'711.5
2018-Jul-16 00:52N 48°53' W 123°19'0 0.9
2018-Jul-16 00:30N 48°53' W 123°18'714.6
2018-Jul-16 00:00N 48°58' W 123°11'3 5.8
2018-Jul-15 23:29N 49°00' W 123°08'5 9.5
2018-Jul-15 22:58N 48°56' W 123°12'714.1
2018-Jul-15 22:28N 48°52' W 123°20'4 8.0
2018-Jul-15 21:55N 48°51' W 123°27'0 0.0
2018-Jul-15 21:25N 48°51' W 123°27'0 0.1
2018-Jul-15 20:45N 48°51' W 123°27'2 8.8
2018-Jul-15 20:30N 48°50' W 123°25'612.1
2018-Jul-15 20:01N 48°44' W 123°25'2 4.6
2018-Jul-15 19:30N 48°41' W 123°25'4 8.2
2018-Jul-15 19:00N 48°45' W 123°21'4 7.3
2018-Jul-15 18:30N 48°48' W 123°19'3 4.2
2018-Jul-15 17:52N 48°51' W 123°20'2 4.4
2018-Jul-15 17:29N 48°52' W 123°18'1 2.5
2018-Jul-15 16:59N 48°53' W 123°18'815.2
2018-Jul-15 16:29N 48°59' W 123°09'2 3.8
2018-Jul-15 16:00N 49°00' W 123°08'0 0.5
2018-Jul-15 15:30N 49°00' W 123°08'713.5
2018-Jul-15 14:58N 48°55' W 123°15'610.2
2018-Jul-15 14:20N 48°49' W 123°20'1 4.5
2018-Jul-15 14:00N 48°48' W 123°19'510.2
2018-Jul-15 13:30N 48°51' W 123°26'1 0.1
2018-Jul-15 07:22N 48°51' W 123°27'1 3.8
2018-Jul-15 07:00N 48°51' W 123°25'4 8.2
2018-Jul-15 06:29N 48°53' W 123°19'714.3
2018-Jul-15 06:00N 48°58' W 123°12'4 6.6
2018-Jul-15 05:27N 49°00' W 123°08'0 0.0
2018-Jul-15 04:58N 49°00' W 123°08'0 0.0
2018-Jul-15 04:28N 49°00' W 123°08'0 0.0
2018-Jul-15 03:52N 49°00' W 123°08'0 0.0
2018-Jul-15 03:30N 49°00' W 123°08'0 0.0
2018-Jul-15 03:01N 49°00' W 123°08'0 0.0
2018-Jul-15 02:30N 49°00' W 123°08'0 0.0
2018-Jul-15 02:01N 49°00' W 123°08'0 0.3
2018-Jul-15 01:30N 49°00' W 123°08'714.8
2018-Jul-15 01:00N 48°54' W 123°15'3 6.3
2018-Jul-15 00:30N 48°52' W 123°18'2 3.8
2018-Jul-15 00:00N 48°51' W 123°20'3 5.5
2018-Jul-14 23:30N 48°48' W 123°19'510.7
2018-Jul-14 23:00N 48°51' W 123°26'1 1.2
2018-Jul-14 22:30N 48°51' W 123°27'713.2
2018-Jul-14 22:00N 48°46' W 123°22'4 6.3
2018-Jul-14 21:26N 48°46' W 123°27'3 6.1
2018-Jul-14 21:00N 48°44' W 123°24'713.0
2018-Jul-14 20:30N 48°51' W 123°21'5 9.8
2018-Jul-14 20:00N 48°54' W 123°17'815.1
2018-Jul-14 19:30N 48°60' W 123°09'1 1.7
2018-Jul-14 19:00N 49°00' W 123°08'510.6
2018-Jul-14 18:30N 48°56' W 123°12'713.2
2018-Jul-14 17:58N 48°52' W 123°21'4 8.2
2018-Jul-14 17:29N 48°51' W 123°27'0 0.3
2018-Jul-14 17:00N 48°51' W 123°27'510.8
2018-Jul-14 16:30N 48°52' W 123°18'1 2.8
2018-Jul-14 16:00N 48°54' W 123°17'817.0
2018-Jul-14 15:30N 48°60' W 123°08'1 1.7
2018-Jul-14 15:00N 49°00' W 123°08'5 9.3
2018-Jul-14 14:29N 48°56' W 123°12'1010.6
2018-Jul-14 13:30N 48°51' W 123°25'1 0.2
2018-Jul-14 05:24N 48°51' W 123°27'4 7.6
2018-Jul-14 04:56N 48°49' W 123°23'3 6.4
2018-Jul-14 04:30N 48°48' W 123°19'4 8.3
2018-Jul-14 03:59N 48°52' W 123°18'613.0
2018-Jul-14 03:30N 48°57' W 123°12'4 8.7
2018-Jul-14 03:00N 49°00' W 123°08'1 1.6
2018-Jul-14 02:30N 48°60' W 123°08'815.9
2018-Jul-14 02:00N 48°54' W 123°16'4 6.8
2018-Jul-14 01:28N 48°51' W 123°20'1 2.9
2018-Jul-14 01:00N 48°52' W 123°19'2 3.4
2018-Jul-14 00:26N 48°54' W 123°17'716.3
2018-Jul-14 00:00N 48°59' W 123°10'2 4.4
2018-Jul-13 23:30N 49°00' W 123°08'3 6.5
2018-Jul-13 23:00N 48°58' W 123°10'816.2
2018-Jul-13 22:30N 48°52' W 123°19'510.2
2018-Jul-13 21:59N 48°51' W 123°27'0 0.3
2018-Jul-13 21:30N 48°51' W 123°27'510.1
2018-Jul-13 20:59N 48°52' W 123°19'815.9
2018-Jul-13 20:30N 48°58' W 123°12'4 6.9
2018-Jul-13 19:59N 49°00' W 123°08'1 2.9
2018-Jul-13 19:30N 48°59' W 123°08'815.4
2018-Jul-13 19:00N 48°53' W 123°16'712.9
2018-Jul-13 18:30N 48°50' W 123°25'1 2.7
2018-Jul-13 17:59N 48°51' W 123°27'2 3.3
2018-Jul-13 17:30N 48°51' W 123°24'4 7.4
2018-Jul-13 16:59N 48°53' W 123°19'4 8.0
2018-Jul-13 16:30N 48°55' W 123°15'713.5
2018-Jul-13 16:00N 49°00' W 123°08'0 0.0
2018-Jul-13 15:30N 49°00' W 123°08'4 7.2
2018-Jul-13 15:00N 48°57' W 123°11'1010.4
2018-Jul-13 14:00N 48°49' W 123°20'1 2.7
2018-Jul-13 13:31N 48°48' W 123°20'510.2
2018-Jul-13 12:59N 48°51' W 123°27'0 0.0
2018-Jul-13 05:25N 48°51' W 123°27'4 8.1
2018-Jul-13 04:55N 48°48' W 123°23'2 5.6
2018-Jul-13 04:30N 48°48' W 123°19'712.5
2018-Jul-13 03:59N 48°54' W 123°17'816.5
2018-Jul-13 03:30N 49°00' W 123°09'1 1.5
2018-Jul-13 03:00N 49°00' W 123°08'713.6
2018-Jul-13 02:29N 48°55' W 123°14'611.3
2018-Jul-13 01:59N 48°51' W 123°20'0 0.2
2018-Jul-13 01:28N 48°51' W 123°20'2 3.0
2018-Jul-13 00:54N 48°52' W 123°18'0 0.9
2018-Jul-13 00:30N 48°53' W 123°19'611.8
2018-Jul-12 23:59N 48°57' W 123°13'5 9.1
2018-Jul-12 23:29N 49°00' W 123°08'0 0.7
2018-Jul-12 23:00N 49°00' W 123°08'713.9
2018-Jul-12 22:30N 48°55' W 123°15'612.5
2018-Jul-12 21:59N 48°51' W 123°23'3 1.7
2018-Jul-12 20:26N 48°51' W 123°27'5 9.2
2018-Jul-12 19:52N 48°48' W 123°21'1 2.8
2018-Jul-12 19:30N 48°48' W 123°19'3 5.4
2018-Jul-12 19:00N 48°51' W 123°20'1 1.8
2018-Jul-12 18:30N 48°52' W 123°19'2 2.7
2018-Jul-12 17:55N 48°53' W 123°18'615.0
2018-Jul-12 17:29N 48°58' W 123°12'4 6.3
2018-Jul-12 16:56N 49°00' W 123°08'0 0.0
2018-Jul-12 16:28N 49°00' W 123°08'510.6
2018-Jul-12 16:00N 48°56' W 123°12'611.0
2018-Jul-12 15:29N 48°53' W 123°19'2 3.8
2018-Jul-12 14:59N 48°51' W 123°20'1 1.6
2018-Jul-12 14:30N 48°50' W 123°20'2 4.5
2018-Jul-12 14:00N 48°48' W 123°19'5 9.9
2018-Jul-12 13:30N 48°51' W 123°25'1 1.4
2018-Jul-12 12:46N 48°51' W 123°27'0 0.0
2018-Jul-12 06:40N 48°51' W 123°27'0 0.0
2018-Jul-12 06:10N 48°51' W 123°27'0 0.0
2018-Jul-12 05:50N 48°51' W 123°27'2 6.0
2018-Jul-12 05:27N 48°49' W 123°25'4 9.0
2018-Jul-12 05:00N 48°48' W 123°19'3 5.5
2018-Jul-12 04:31N 48°51' W 123°20'2 3.5
2018-Jul-12 03:58N 48°52' W 123°18'1 2.1
2018-Jul-12 03:30N 48°53' W 123°18'714.3
2018-Jul-12 03:00N 48°59' W 123°11'3 5.2
2018-Jul-12 02:30N 49°00' W 123°08'3 6.5
2018-Jul-12 02:00N 48°57' W 123°10'814.2
2018-Jul-12 01:28N 48°52' W 123°18'  

Dump ship's entire track history